sensor_id;sensor_type;location;lat;lon;timestamp;P1;durP1;ratioP1;P2;durP2;ratioP2
17496;SDS011;62150;43.582;1.456;2024-02-14T04:38:40;7.90;;;3.90;;
17496;SDS011;62150;43.582;1.456;2024-02-14T04:41:08;8.93;;;4.03;;
17496;SDS011;62150;43.582;1.456;2024-02-14T04:43:36;8.77;;;4.23;;
17496;SDS011;62150;43.582;1.456;2024-02-14T04:46:03;9.97;;;4.53;;
17496;SDS011;62150;43.582;1.456;2024-02-14T04:48:32;9.50;;;4.40;;
17496;SDS011;62150;43.582;1.456;2024-02-14T04:50:59;9.57;;;4.37;;
17496;SDS011;62150;43.582;1.456;2024-02-14T04:53:27;9.73;;;4.60;;
17496;SDS011;62150;43.582;1.456;2024-02-14T04:55:56;10.07;;;4.67;;
17496;SDS011;62150;43.582;1.456;2024-02-14T04:58:23;8.73;;;4.50;;
17496;SDS011;62150;43.582;1.456;2024-02-14T05:00:52;9.77;;;4.37;;
17496;SDS011;62150;43.582;1.456;2024-02-14T05:03:20;8.87;;;4.40;;
17496;SDS011;62150;43.582;1.456;2024-02-14T05:05:49;9.07;;;4.30;;
17496;SDS011;62150;43.582;1.456;2024-02-14T05:08:17;9.57;;;4.27;;
17496;SDS011;62150;43.582;1.456;2024-02-14T05:10:44;9.63;;;4.30;;
17496;SDS011;62150;43.582;1.456;2024-02-14T05:13:13;10.67;;;4.30;;
17496;SDS011;62150;43.582;1.456;2024-02-14T05:15:41;7.97;;;3.97;;
17496;SDS011;62150;43.582;1.456;2024-02-14T05:18:08;8.77;;;4.17;;
17496;SDS011;62150;43.582;1.456;2024-02-14T05:20:36;9.03;;;4.30;;
17496;SDS011;62150;43.582;1.456;2024-02-14T05:23:04;9.90;;;4.20;;
17496;SDS011;62150;43.582;1.456;2024-02-14T05:25:31;8.57;;;4.00;;
17496;SDS011;62150;43.582;1.456;2024-02-14T05:27:59;8.77;;;4.00;;
17496;SDS011;62150;43.582;1.456;2024-02-14T05:30:28;10.10;;;4.40;;
17496;SDS011;62150;43.582;1.456;2024-02-14T05:32:56;9.90;;;4.50;;
17496;SDS011;62150;43.582;1.456;2024-02-14T05:35:24;9.87;;;4.40;;
17496;SDS011;62150;43.582;1.456;2024-02-14T05:37:51;9.03;;;4.30;;
17496;SDS011;62150;43.582;1.456;2024-02-14T05:40:19;9.60;;;4.30;;
17496;SDS011;62150;43.582;1.456;2024-02-14T05:42:47;8.13;;;3.97;;
17496;SDS011;62150;43.582;1.456;2024-02-14T05:45:14;10.17;;;4.07;;
17496;SDS011;62150;43.582;1.456;2024-02-14T05:47:43;7.53;;;4.00;;
17496;SDS011;62150;43.582;1.456;2024-02-14T05:50:11;8.17;;;3.90;;
17496;SDS011;62150;43.582;1.456;2024-02-14T05:52:38;9.70;;;4.33;;
17496;SDS011;62150;43.582;1.456;2024-02-14T05:55:06;10.20;;;4.30;;
17496;SDS011;62150;43.582;1.456;2024-02-14T05:57:34;8.93;;;4.23;;
17496;SDS011;62150;43.582;1.456;2024-02-14T06:00:02;7.63;;;4.00;;
17496;SDS011;62150;43.582;1.456;2024-02-14T06:02:30;9.03;;;3.97;;
17496;SDS011;62150;43.582;1.456;2024-02-14T06:04:59;9.10;;;4.30;;
17496;SDS011;62150;43.582;1.456;2024-02-14T06:07:27;8.43;;;4.03;;
17496;SDS011;62150;43.582;1.456;2024-02-14T06:09:54;9.30;;;4.00;;
17496;SDS011;62150;43.582;1.456;2024-02-14T06:12:22;9.07;;;3.80;;
17496;SDS011;62150;43.582;1.456;2024-02-14T06:14:49;7.87;;;3.90;;
17496;SDS011;62150;43.582;1.456;2024-02-14T06:17:16;8.10;;;3.90;;
17496;SDS011;62150;43.582;1.456;2024-02-14T06:19:44;7.97;;;3.93;;
17496;SDS011;62150;43.582;1.456;2024-02-14T06:22:13;8.63;;;4.13;;
17496;SDS011;62150;43.582;1.456;2024-02-14T06:24:40;9.07;;;4.07;;
17496;SDS011;62150;43.582;1.456;2024-02-14T06:27:08;8.13;;;3.50;;
17496;SDS011;62150;43.582;1.456;2024-02-14T06:29:35;8.77;;;3.77;;
17496;SDS011;62150;43.582;1.456;2024-02-14T06:32:03;7.53;;;3.73;;
17496;SDS011;62150;43.582;1.456;2024-02-14T06:34:31;8.40;;;3.93;;
17496;SDS011;62150;43.582;1.456;2024-02-14T06:36:59;10.30;;;4.60;;
17496;SDS011;62150;43.582;1.456;2024-02-14T06:39:28;9.77;;;5.47;;
17496;SDS011;62150;43.582;1.456;2024-02-14T06:41:55;9.70;;;5.13;;
17496;SDS011;62150;43.582;1.456;2024-02-14T06:44:23;9.20;;;4.73;;
17496;SDS011;62150;43.582;1.456;2024-02-14T06:46:50;10.73;;;5.03;;
17496;SDS011;62150;43.582;1.456;2024-02-14T06:49:18;9.70;;;4.67;;
17496;SDS011;62150;43.582;1.456;2024-02-14T06:51:46;9.10;;;4.63;;
17496;SDS011;62150;43.582;1.456;2024-02-14T06:54:13;9.33;;;4.77;;
17496;SDS011;62150;43.582;1.456;2024-02-14T06:56:43;8.73;;;4.57;;
17496;SDS011;62150;43.582;1.456;2024-02-14T06:59:11;10.03;;;4.30;;
17496;SDS011;62150;43.582;1.456;2024-02-14T07:01:38;9.80;;;4.27;;
17496;SDS011;62150;43.582;1.456;2024-02-14T07:04:06;8.73;;;4.33;;
17496;SDS011;62150;43.582;1.456;2024-02-14T07:06:33;10.30;;;4.60;;
17496;SDS011;62150;43.582;1.456;2024-02-14T07:09:01;10.43;;;4.87;;
17496;SDS011;62150;43.582;1.456;2024-02-14T07:11:28;10.07;;;5.07;;
17496;SDS011;62150;43.582;1.456;2024-02-14T07:13:57;9.60;;;4.70;;
17496;SDS011;62150;43.582;1.456;2024-02-14T07:16:24;10.20;;;4.70;;
17496;SDS011;62150;43.582;1.456;2024-02-14T07:18:52;10.60;;;4.40;;
17496;SDS011;62150;43.582;1.456;2024-02-14T07:21:20;11.67;;;4.80;;
17496;SDS011;62150;43.582;1.456;2024-02-14T07:23:48;9.83;;;4.77;;
17496;SDS011;62150;43.582;1.456;2024-02-14T07:26:15;10.47;;;4.70;;
17496;SDS011;62150;43.582;1.456;2024-02-14T07:28:43;10.20;;;4.47;;
17496;SDS011;62150;43.582;1.456;2024-02-14T07:31:12;9.50;;;4.53;;
17496;SDS011;62150;43.582;1.456;2024-02-14T07:33:39;9.47;;;4.80;;
17496;SDS011;62150;43.582;1.456;2024-02-14T07:36:08;8.77;;;4.30;;
17496;SDS011;62150;43.582;1.456;2024-02-14T07:38:35;10.13;;;4.70;;
17496;SDS011;62150;43.582;1.456;2024-02-14T07:41:03;9.63;;;4.53;;
17496;SDS011;62150;43.582;1.456;2024-02-14T07:43:30;9.60;;;4.50;;
17496;SDS011;62150;43.582;1.456;2024-02-14T07:45:58;10.07;;;4.63;;
17496;SDS011;62150;43.582;1.456;2024-02-14T07:48:27;9.90;;;4.63;;
17496;SDS011;62150;43.582;1.456;2024-02-14T07:50:55;9.67;;;4.70;;
17496;SDS011;62150;43.582;1.456;2024-02-14T07:53:23;10.87;;;5.03;;
17496;SDS011;62150;43.582;1.456;2024-02-14T07:55:51;10.87;;;5.37;;
17496;SDS011;62150;43.582;1.456;2024-02-14T07:58:19;11.47;;;5.50;;
17496;SDS011;62150;43.582;1.456;2024-02-14T08:00:47;11.07;;;5.43;;
17496;SDS011;62150;43.582;1.456;2024-02-14T08:03:14;11.77;;;5.57;;
17496;SDS011;62150;43.582;1.456;2024-02-14T08:05:43;11.13;;;5.13;;
17496;SDS011;62150;43.582;1.456;2024-02-14T08:08:11;10.70;;;5.23;;
17496;SDS011;62150;43.582;1.456;2024-02-14T08:10:38;11.30;;;5.53;;
17496;SDS011;62150;43.582;1.456;2024-02-14T08:13:06;11.30;;;5.63;;
17496;SDS011;62150;43.582;1.456;2024-02-14T08:15:33;12.20;;;5.67;;
17496;SDS011;62150;43.582;1.456;2024-02-14T08:18:01;12.00;;;5.67;;
17496;SDS011;62150;43.582;1.456;2024-02-14T08:20:29;12.77;;;5.83;;
17496;SDS011;62150;43.582;1.456;2024-02-14T08:23:00;10.57;;;5.10;;
17496;SDS011;62150;43.582;1.456;2024-02-14T08:25:28;11.10;;;5.00;;
17496;SDS011;62150;43.582;1.456;2024-02-14T08:27:56;9.70;;;4.63;;
17496;SDS011;62150;43.582;1.456;2024-02-14T08:30:23;11.87;;;4.87;;
17496;SDS011;62150;43.582;1.456;2024-02-14T08:32:52;11.23;;;4.63;;
17496;SDS011;62150;43.582;1.456;2024-02-14T08:35:19;10.57;;;4.60;;
17496;SDS011;62150;43.582;1.456;2024-02-14T08:37:47;9.70;;;4.07;;
17496;SDS011;62150;43.582;1.456;2024-02-14T08:40:16;11.17;;;4.57;;
17496;SDS011;62150;43.582;1.456;2024-02-14T08:42:44;11.00;;;4.27;;
17496;SDS011;62150;43.582;1.456;2024-02-14T08:45:12;9.97;;;4.83;;
17496;SDS011;62150;43.582;1.456;2024-02-14T08:47:40;10.97;;;5.13;;
17496;SDS011;62150;43.582;1.456;2024-02-14T08:50:10;10.67;;;4.63;;
17496;SDS011;62150;43.582;1.456;2024-02-14T08:52:38;11.63;;;4.80;;
17496;SDS011;62150;43.582;1.456;2024-02-14T08:55:06;9.73;;;4.80;;
17496;SDS011;62150;43.582;1.456;2024-02-14T08:57:41;9.73;;;4.70;;
17496;SDS011;62150;43.582;1.456;2024-02-14T09:00:10;11.50;;;5.00;;
17496;SDS011;62150;43.582;1.456;2024-02-14T09:02:39;10.40;;;4.70;;
17496;SDS011;62150;43.582;1.456;2024-02-14T09:05:07;11.00;;;4.57;;
17496;SDS011;62150;43.582;1.456;2024-02-14T09:07:35;10.90;;;4.93;;
17496;SDS011;62150;43.582;1.456;2024-02-14T09:10:02;11.30;;;4.77;;
17496;SDS011;62150;43.582;1.456;2024-02-14T09:12:31;11.23;;;4.80;;
17496;SDS011;62150;43.582;1.456;2024-02-14T09:15:00;10.00;;;4.47;;
17496;SDS011;62150;43.582;1.456;2024-02-14T09:17:29;10.77;;;4.63;;
17496;SDS011;62150;43.582;1.456;2024-02-14T09:19:57;10.80;;;4.73;;
17496;SDS011;62150;43.582;1.456;2024-02-14T09:22:25;9.77;;;4.60;;
17496;SDS011;62150;43.582;1.456;2024-02-14T09:24:54;10.60;;;5.00;;
17496;SDS011;62150;43.582;1.456;2024-02-14T09:27:23;10.47;;;4.67;;
17496;SDS011;62150;43.582;1.456;2024-02-14T09:29:50;10.20;;;5.10;;
17496;SDS011;62150;43.582;1.456;2024-02-14T09:32:19;9.57;;;4.70;;
17496;SDS011;62150;43.582;1.456;2024-02-14T09:34:46;10.53;;;5.00;;
17496;SDS011;62150;43.582;1.456;2024-02-14T09:37:14;10.27;;;4.60;;
17496;SDS011;62150;43.582;1.456;2024-02-14T09:39:42;12.20;;;5.13;;
17496;SDS011;62150;43.582;1.456;2024-02-14T09:42:11;12.00;;;5.30;;
17496;SDS011;62150;43.582;1.456;2024-02-14T09:44:42;10.43;;;4.80;;
17496;SDS011;62150;43.582;1.456;2024-02-14T09:47:11;11.63;;;5.30;;
17496;SDS011;62150;43.582;1.456;2024-02-14T09:49:41;11.10;;;5.40;;
17496;SDS011;62150;43.582;1.456;2024-02-14T09:52:10;10.50;;;4.90;;
17496;SDS011;62150;43.582;1.456;2024-02-14T09:54:38;9.50;;;4.93;;
17496;SDS011;62150;43.582;1.456;2024-02-14T09:57:06;9.97;;;5.13;;
17496;SDS011;62150;43.582;1.456;2024-02-14T09:59:35;11.03;;;4.93;;
17496;SDS011;62150;43.582;1.456;2024-02-14T10:02:03;10.83;;;5.00;;
17496;SDS011;62150;43.582;1.456;2024-02-14T10:04:31;13.37;;;5.43;;
17496;SDS011;62150;43.582;1.456;2024-02-14T10:06:59;11.00;;;4.80;;
17496;SDS011;62150;43.582;1.456;2024-02-14T10:09:28;11.73;;;5.00;;
17496;SDS011;62150;43.582;1.456;2024-02-14T10:11:55;11.27;;;4.90;;
17496;SDS011;62150;43.582;1.456;2024-02-14T10:14:23;13.07;;;5.10;;
17496;SDS011;62150;43.582;1.456;2024-02-14T10:16:50;12.53;;;5.07;;
17496;SDS011;62150;43.582;1.456;2024-02-14T10:19:18;10.73;;;4.87;;
17496;SDS011;62150;43.582;1.456;2024-02-14T10:21:54;9.93;;;4.70;;
17496;SDS011;62150;43.582;1.456;2024-02-14T10:24:25;12.57;;;5.00;;
17496;SDS011;62150;43.582;1.456;2024-02-14T10:26:53;10.97;;;4.70;;
17496;SDS011;62150;43.582;1.456;2024-02-14T10:29:22;10.30;;;4.23;;
17496;SDS011;62150;43.582;1.456;2024-02-14T10:31:50;12.60;;;4.70;;
17496;SDS011;62150;43.582;1.456;2024-02-14T10:34:18;10.67;;;4.40;;
17496;SDS011;62150;43.582;1.456;2024-02-14T10:36:50;10.50;;;4.30;;
17496;SDS011;62150;43.582;1.456;2024-02-14T10:39:19;9.57;;;4.50;;
17496;SDS011;62150;43.582;1.456;2024-02-14T10:41:49;10.97;;;4.33;;
17496;SDS011;62150;43.582;1.456;2024-02-14T10:44:16;10.97;;;4.27;;
17496;SDS011;62150;43.582;1.456;2024-02-14T10:46:44;10.53;;;4.40;;
17496;SDS011;62150;43.582;1.456;2024-02-14T10:49:12;10.33;;;4.10;;
17496;SDS011;62150;43.582;1.456;2024-02-14T10:51:42;9.27;;;3.90;;
17496;SDS011;62150;43.582;1.456;2024-02-14T10:54:13;9.10;;;4.07;;
17496;SDS011;62150;43.582;1.456;2024-02-14T10:56:42;10.47;;;3.90;;
17496;SDS011;62150;43.582;1.456;2024-02-14T10:59:16;10.10;;;4.37;;
17496;SDS011;62150;43.582;1.456;2024-02-14T11:01:46;12.13;;;4.20;;
17496;SDS011;62150;43.582;1.456;2024-02-14T11:04:14;10.47;;;3.80;;
17496;SDS011;62150;43.582;1.456;2024-02-14T11:06:46;8.27;;;3.60;;
17496;SDS011;62150;43.582;1.456;2024-02-14T11:09:14;9.63;;;3.77;;
17496;SDS011;62150;43.582;1.456;2024-02-14T11:11:42;10.77;;;3.30;;
17496;SDS011;62150;43.582;1.456;2024-02-14T11:14:13;9.03;;;3.70;;
17496;SDS011;62150;43.582;1.456;2024-02-14T11:16:45;9.10;;;3.30;;
17496;SDS011;62150;43.582;1.456;2024-02-14T11:19:13;9.33;;;3.50;;
17496;SDS011;62150;43.582;1.456;2024-02-14T11:21:42;13.27;;;3.77;;
17496;SDS011;62150;43.582;1.456;2024-02-14T11:24:11;12.37;;;3.70;;
17496;SDS011;62150;43.582;1.456;2024-02-14T11:26:45;8.80;;;3.23;;
17496;SDS011;62150;43.582;1.456;2024-02-14T11:29:14;8.57;;;3.37;;
17496;SDS011;62150;43.582;1.456;2024-02-14T11:31:43;8.97;;;3.30;;
17496;SDS011;62150;43.582;1.456;2024-02-14T11:34:13;11.23;;;3.60;;
17496;SDS011;62150;43.582;1.456;2024-02-14T11:36:41;10.63;;;3.50;;
17496;SDS011;62150;43.582;1.456;2024-02-14T11:39:09;9.63;;;3.80;;
17496;SDS011;62150;43.582;1.456;2024-02-14T11:41:37;8.27;;;3.33;;
17496;SDS011;62150;43.582;1.456;2024-02-14T11:44:07;7.50;;;3.10;;
17496;SDS011;62150;43.582;1.456;2024-02-14T11:46:38;8.50;;;3.33;;
17496;SDS011;62150;43.582;1.456;2024-02-14T11:49:07;7.10;;;3.00;;
17496;SDS011;62150;43.582;1.456;2024-02-14T11:51:35;8.33;;;3.27;;
17496;SDS011;62150;43.582;1.456;2024-02-14T11:54:03;9.07;;;3.30;;
17496;SDS011;62150;43.582;1.456;2024-02-14T11:56:32;6.17;;;2.50;;
17496;SDS011;62150;43.582;1.456;2024-02-14T11:59:00;5.87;;;2.60;;
17496;SDS011;62150;43.582;1.456;2024-02-14T12:01:30;7.13;;;2.70;;
17496;SDS011;62150;43.582;1.456;2024-02-14T12:04:01;6.27;;;2.93;;
17496;SDS011;62150;43.582;1.456;2024-02-14T12:06:31;4.90;;;2.40;;
17496;SDS011;62150;43.582;1.456;2024-02-14T12:09:00;5.40;;;2.43;;
17496;SDS011;62150;43.582;1.456;2024-02-14T12:11:30;5.13;;;2.40;;
17496;SDS011;62150;43.582;1.456;2024-02-14T12:14:00;4.57;;;2.63;;
17496;SDS011;62150;43.582;1.456;2024-02-14T12:16:29;4.13;;;2.63;;
17496;SDS011;62150;43.582;1.456;2024-02-14T12:19:05;4.63;;;2.10;;
17496;SDS011;62150;43.582;1.456;2024-02-14T12:21:34;4.97;;;2.30;;
17496;SDS011;62150;43.582;1.456;2024-02-14T12:24:03;4.30;;;2.00;;
17496;SDS011;62150;43.582;1.456;2024-02-14T12:26:32;3.20;;;1.80;;
17496;SDS011;62150;43.582;1.456;2024-02-14T12:29:01;3.80;;;2.00;;
17496;SDS011;62150;43.582;1.456;2024-02-14T12:31:30;4.37;;;2.00;;
17496;SDS011;62150;43.582;1.456;2024-02-14T12:33:57;5.57;;;1.90;;
17496;SDS011;62150;43.582;1.456;2024-02-14T12:36:28;4.50;;;1.80;;
17496;SDS011;62150;43.582;1.456;2024-02-14T12:38:56;3.57;;;1.90;;
17496;SDS011;62150;43.582;1.456;2024-02-14T12:41:23;3.17;;;1.80;;
17496;SDS011;62150;43.582;1.456;2024-02-14T12:43:54;2.10;;;1.50;;
17496;SDS011;62150;43.582;1.456;2024-02-14T12:46:22;3.93;;;1.70;;
17496;SDS011;62150;43.582;1.456;2024-02-14T12:48:50;2.50;;;1.60;;
17496;SDS011;62150;43.582;1.456;2024-02-14T12:51:17;3.37;;;1.80;;
17496;SDS011;62150;43.582;1.456;2024-02-14T12:53:46;3.00;;;1.67;;
17496;SDS011;62150;43.582;1.456;2024-02-14T12:56:14;2.43;;;1.70;;
17496;SDS011;62150;43.582;1.456;2024-02-14T12:58:41;1.93;;;1.70;;
17496;SDS011;62150;43.582;1.456;2024-02-14T13:01:09;5.20;;;1.70;;
17496;SDS011;62150;43.582;1.456;2024-02-14T13:03:37;2.30;;;1.70;;
17496;SDS011;62150;43.582;1.456;2024-02-14T13:06:05;3.77;;;1.70;;
17496;SDS011;62150;43.582;1.456;2024-02-14T13:08:32;4.37;;;1.70;;
17496;SDS011;62150;43.582;1.456;2024-02-14T13:11:02;3.27;;;1.73;;
17496;SDS011;62150;43.582;1.456;2024-02-14T13:13:30;3.03;;;1.70;;
17496;SDS011;62150;43.582;1.456;2024-02-14T13:15:57;2.83;;;1.70;;
17496;SDS011;62150;43.582;1.456;2024-02-14T13:18:25;3.27;;;1.60;;
17496;SDS011;62150;43.582;1.456;2024-02-14T13:20:53;3.03;;;1.60;;
17496;SDS011;62150;43.582;1.456;2024-02-14T13:23:24;3.93;;;1.77;;
17496;SDS011;62150;43.582;1.456;2024-02-14T13:25:52;3.63;;;1.70;;
17496;SDS011;62150;43.582;1.456;2024-02-14T13:28:21;3.37;;;1.60;;
17496;SDS011;62150;43.582;1.456;2024-02-14T13:30:48;1.83;;;1.33;;
17496;SDS011;62150;43.582;1.456;2024-02-14T13:33:16;3.28;;;1.70;;
17496;SDS011;62150;43.582;1.456;2024-02-14T13:35:43;2.30;;;1.80;;
17496;SDS011;62150;43.582;1.456;2024-02-14T13:38:11;3.30;;;1.70;;
17496;SDS011;62150;43.582;1.456;2024-02-14T13:40:39;4.07;;;1.73;;
17496;SDS011;62150;43.582;1.456;2024-02-14T13:43:06;4.13;;;1.70;;
17496;SDS011;62150;43.582;1.456;2024-02-14T13:45:41;3.13;;;1.60;;
17496;SDS011;62150;43.582;1.456;2024-02-14T13:48:10;3.03;;;1.60;;
17496;SDS011;62150;43.582;1.456;2024-02-14T13:50:37;3.97;;;2.00;;
17496;SDS011;62150;43.582;1.456;2024-02-14T13:53:06;4.22;;;1.85;;
17496;SDS011;62150;43.582;1.456;2024-02-14T13:55:33;1.77;;;1.40;;
17496;SDS011;62150;43.582;1.456;2024-02-14T13:58:01;2.70;;;1.70;;
17496;SDS011;62150;43.582;1.456;2024-02-14T14:00:28;4.68;;;1.67;;
17496;SDS011;62150;43.582;1.456;2024-02-14T14:02:59;2.60;;;1.55;;
17496;SDS011;62150;43.582;1.456;2024-02-14T14:05:26;2.75;;;1.60;;
17496;SDS011;62150;43.582;1.456;2024-02-14T14:07:54;3.42;;;1.70;;
17496;SDS011;62150;43.582;1.456;2024-02-14T14:10:22;3.60;;;1.60;;
17496;SDS011;62150;43.582;1.456;2024-02-14T14:12:50;3.78;;;1.67;;
17496;SDS011;62150;43.582;1.456;2024-02-14T14:15:18;1.65;;;1.40;;
17496;SDS011;62150;43.582;1.456;2024-02-14T14:17:47;3.75;;;1.58;;
17496;SDS011;62150;43.582;1.456;2024-02-14T14:20:16;1.70;;;1.40;;
17496;SDS011;62150;43.582;1.456;2024-02-14T14:22:44;3.03;;;1.55;;
17496;SDS011;62150;43.582;1.456;2024-02-14T14:25:11;2.63;;;1.30;;
17496;SDS011;62150;43.582;1.456;2024-02-14T14:27:39;1.75;;;1.20;;
17496;SDS011;62150;43.582;1.456;2024-02-14T14:30:07;2.20;;;1.20;;
17496;SDS011;62150;43.582;1.456;2024-02-14T14:32:36;1.85;;;1.10;;
17496;SDS011;62150;43.582;1.456;2024-02-14T14:35:04;1.23;;;1.13;;
17496;SDS011;62150;43.582;1.456;2024-02-14T14:37:33;1.75;;;1.23;;
17496;SDS011;62150;43.582;1.456;2024-02-14T14:40:00;1.75;;;1.20;;
17496;SDS011;62150;43.582;1.456;2024-02-14T14:42:30;2.35;;;1.13;;
17496;SDS011;62150;43.582;1.456;2024-02-14T14:44:56;2.22;;;1.13;;
17496;SDS011;62150;43.582;1.456;2024-02-14T14:47:24;4.13;;;1.50;;
17496;SDS011;62150;43.582;1.456;2024-02-14T14:49:52;1.98;;;1.38;;
17496;SDS011;62150;43.582;1.456;2024-02-14T14:52:19;1.92;;;1.42;;
17496;SDS011;62150;43.582;1.456;2024-02-14T14:54:48;3.22;;;1.35;;
17496;SDS011;62150;43.582;1.456;2024-02-14T14:57:16;2.78;;;1.50;;
17496;SDS011;62150;43.582;1.456;2024-02-14T14:59:43;2.70;;;1.20;;
17496;SDS011;62150;43.582;1.456;2024-02-14T15:02:11;1.95;;;1.40;;
17496;SDS011;62150;43.582;1.456;2024-02-14T15:04:38;3.08;;;1.45;;
17496;SDS011;62150;43.582;1.456;2024-02-14T15:07:09;3.50;;;1.50;;
17496;SDS011;62150;43.582;1.456;2024-02-14T15:09:36;3.05;;;1.40;;
17496;SDS011;62150;43.582;1.456;2024-02-14T15:12:06;2.30;;;1.45;;
17496;SDS011;62150;43.582;1.456;2024-02-14T15:14:33;1.88;;;1.40;;
17496;SDS011;62150;43.582;1.456;2024-02-14T15:17:01;2.10;;;1.52;;
17496;SDS011;62150;43.582;1.456;2024-02-14T15:19:30;1.85;;;1.50;;
17496;SDS011;62150;43.582;1.456;2024-02-14T15:21:57;1.83;;;1.40;;
17496;SDS011;62150;43.582;1.456;2024-02-14T15:24:29;3.05;;;1.50;;
17496;SDS011;62150;43.582;1.456;2024-02-14T15:26:59;2.63;;;1.40;;
17496;SDS011;62150;43.582;1.456;2024-02-14T15:29:29;1.90;;;1.30;;
17496;SDS011;62150;43.582;1.456;2024-02-14T15:32:14;2.45;;;1.38;;
17496;SDS011;62150;43.582;1.456;2024-02-14T15:34:59;1.63;;;1.30;;
17496;SDS011;62150;43.582;1.456;2024-02-14T15:37:29;1.27;;;1.17;;
17496;SDS011;62150;43.582;1.456;2024-02-14T15:39:56;2.15;;;1.40;;
17496;SDS011;62150;43.582;1.456;2024-02-14T15:42:24;2.25;;;1.33;;
17496;SDS011;62150;43.582;1.456;2024-02-14T15:44:53;2.92;;;1.38;;
17496;SDS011;62150;43.582;1.456;2024-02-14T15:47:20;2.25;;;1.27;;
17496;SDS011;62150;43.582;1.456;2024-02-14T15:49:48;1.67;;;1.33;;
17496;SDS011;62150;43.582;1.456;2024-02-14T15:52:16;1.48;;;1.38;;
17496;SDS011;62150;43.582;1.456;2024-02-14T15:54:43;1.90;;;1.35;;
17496;SDS011;62150;43.582;1.456;2024-02-14T15:57:11;3.13;;;1.40;;
17496;SDS011;62150;43.582;1.456;2024-02-14T15:59:38;1.38;;;1.25;;
17496;SDS011;62150;43.582;1.456;2024-02-14T16:02:07;2.03;;;1.30;;
17496;SDS011;62150;43.582;1.456;2024-02-14T16:04:35;1.55;;;1.30;;
17496;SDS011;62150;43.582;1.456;2024-02-14T16:07:03;2.03;;;1.35;;
17496;SDS011;62150;43.582;1.456;2024-02-14T16:09:31;3.00;;;1.40;;
17496;SDS011;62150;43.582;1.456;2024-02-14T16:11:59;3.42;;;1.48;;
17496;SDS011;62150;43.582;1.456;2024-02-14T16:14:26;1.92;;;1.30;;
17496;SDS011;62150;43.582;1.456;2024-02-14T16:16:57;3.03;;;1.42;;
17496;SDS011;62150;43.582;1.456;2024-02-14T16:19:26;1.70;;;1.30;;
17496;SDS011;62150;43.582;1.456;2024-02-14T16:21:53;2.22;;;1.20;;
17496;SDS011;62150;43.582;1.456;2024-02-14T16:24:24;2.50;;;1.50;;
17496;SDS011;62150;43.582;1.456;2024-02-14T16:26:51;2.25;;;1.42;;
17496;SDS011;62150;43.582;1.456;2024-02-14T16:29:19;1.65;;;1.40;;
17496;SDS011;62150;43.582;1.456;2024-02-14T16:31:46;3.05;;;1.70;;
17496;SDS011;62150;43.582;1.456;2024-02-14T16:34:14;2.63;;;1.40;;
17496;SDS011;62150;43.582;1.456;2024-02-14T16:36:44;2.90;;;1.60;;
17496;SDS011;62150;43.582;1.456;2024-02-14T16:39:11;2.97;;;1.60;;
17496;SDS011;62150;43.582;1.456;2024-02-14T16:41:42;3.25;;;1.60;;
17496;SDS011;62150;43.582;1.456;2024-02-14T16:44:09;3.13;;;1.70;;
17496;SDS011;62150;43.582;1.456;2024-02-14T16:46:37;2.67;;;1.73;;
17496;SDS011;62150;43.582;1.456;2024-02-14T16:49:05;2.60;;;1.58;;
17496;SDS011;62150;43.582;1.456;2024-02-14T16:51:34;2.50;;;1.55;;
17496;SDS011;62150;43.582;1.456;2024-02-14T16:54:03;4.35;;;1.58;;
17496;SDS011;62150;43.582;1.456;2024-02-14T16:56:31;3.53;;;1.70;;
17496;SDS011;62150;43.582;1.456;2024-02-14T16:58:59;2.28;;;1.60;;
17496;SDS011;62150;43.582;1.456;2024-02-14T17:01:26;3.38;;;1.70;;
17496;SDS011;62150;43.582;1.456;2024-02-14T17:03:55;5.90;;;2.50;;
17496;SDS011;62150;43.582;1.456;2024-02-14T17:06:22;7.20;;;2.75;;
17496;SDS011;62150;43.582;1.456;2024-02-14T17:08:51;7.10;;;2.47;;
17496;SDS011;62150;43.582;1.456;2024-02-14T17:11:20;6.88;;;2.40;;
17496;SDS011;62150;43.582;1.456;2024-02-14T17:13:48;6.63;;;2.28;;
17496;SDS011;62150;43.582;1.456;2024-02-14T17:16:15;4.38;;;2.20;;
17496;SDS011;62150;43.582;1.456;2024-02-14T17:18:42;6.75;;;2.40;;
17496;SDS011;62150;43.582;1.456;2024-02-14T17:21:10;6.05;;;2.50;;
17496;SDS011;62150;43.582;1.456;2024-02-14T17:23:38;3.28;;;2.13;;
17496;SDS011;62150;43.582;1.456;2024-02-14T17:26:06;4.35;;;2.13;;
17496;SDS011;62150;43.582;1.456;2024-02-14T17:28:34;4.70;;;2.20;;
17496;SDS011;62150;43.582;1.456;2024-02-14T17:31:02;4.75;;;2.30;;
17496;SDS011;62150;43.582;1.456;2024-02-14T17:33:30;6.28;;;2.58;;
17496;SDS011;62150;43.582;1.456;2024-02-14T17:35:57;4.43;;;2.10;;
17496;SDS011;62150;43.582;1.456;2024-02-14T17:38:25;5.15;;;2.30;;
17496;SDS011;62150;43.582;1.456;2024-02-14T17:40:53;5.32;;;2.60;;
17496;SDS011;62150;43.582;1.456;2024-02-14T17:43:20;5.10;;;2.40;;
17496;SDS011;62150;43.582;1.456;2024-02-14T17:45:49;5.70;;;2.30;;
17496;SDS011;62150;43.582;1.456;2024-02-14T17:48:17;6.03;;;2.30;;
17496;SDS011;62150;43.582;1.456;2024-02-14T17:50:44;5.22;;;2.10;;
17496;SDS011;62150;43.582;1.456;2024-02-14T17:53:14;5.95;;;2.40;;
17496;SDS011;62150;43.582;1.456;2024-02-14T17:55:42;5.30;;;2.40;;
17496;SDS011;62150;43.582;1.456;2024-02-14T17:58:09;5.80;;;2.60;;
17496;SDS011;62150;43.582;1.456;2024-02-14T18:00:36;7.13;;;2.55;;
17496;SDS011;62150;43.582;1.456;2024-02-14T18:03:05;5.90;;;2.50;;
17496;SDS011;62150;43.582;1.456;2024-02-14T18:05:33;6.57;;;2.70;;
17496;SDS011;62150;43.582;1.456;2024-02-14T18:08:05;5.40;;;2.58;;
17496;SDS011;62150;43.582;1.456;2024-02-14T18:10:33;5.80;;;2.55;;
17496;SDS011;62150;43.582;1.456;2024-02-14T18:13:01;7.65;;;2.60;;
17496;SDS011;62150;43.582;1.456;2024-02-14T18:15:29;6.25;;;2.78;;
17496;SDS011;62150;43.582;1.456;2024-02-14T18:17:56;8.07;;;3.22;;
17496;SDS011;62150;43.582;1.456;2024-02-14T18:20:25;7.25;;;3.40;;
17496;SDS011;62150;43.582;1.456;2024-02-14T18:22:53;7.25;;;3.13;;
17496;SDS011;62150;43.582;1.456;2024-02-14T18:25:21;7.53;;;3.13;;
17496;SDS011;62150;43.582;1.456;2024-02-14T18:27:48;7.22;;;3.00;;
17496;SDS011;62150;43.582;1.456;2024-02-14T18:30:18;6.68;;;2.97;;
17496;SDS011;62150;43.582;1.456;2024-02-14T18:32:47;9.07;;;3.20;;
17496;SDS011;62150;43.582;1.456;2024-02-14T18:35:15;6.47;;;2.83;;
17496;SDS011;62150;43.582;1.456;2024-02-14T18:37:44;5.57;;;2.83;;
17496;SDS011;62150;43.582;1.456;2024-02-14T18:40:11;8.70;;;3.10;;
17496;SDS011;62150;43.582;1.456;2024-02-14T18:42:40;7.95;;;3.25;;
17496;SDS011;62150;43.582;1.456;2024-02-14T18:45:08;6.82;;;3.20;;
17496;SDS011;62150;43.582;1.456;2024-02-14T18:47:36;7.53;;;3.70;;
17496;SDS011;62150;43.582;1.456;2024-02-14T18:50:04;7.78;;;3.80;;
17496;SDS011;62150;43.582;1.456;2024-02-14T18:52:32;9.13;;;3.78;;
17496;SDS011;62150;43.582;1.456;2024-02-14T18:55:01;7.80;;;3.67;;
17496;SDS011;62150;43.582;1.456;2024-02-14T18:57:28;9.83;;;3.60;;
17496;SDS011;62150;43.582;1.456;2024-02-14T18:59:57;8.02;;;3.60;;
17496;SDS011;62150;43.582;1.456;2024-02-14T19:02:26;8.80;;;3.53;;
17496;SDS011;62150;43.582;1.456;2024-02-14T19:04:58;7.60;;;3.30;;
17496;SDS011;62150;43.582;1.456;2024-02-14T19:07:25;6.53;;;2.88;;
17496;SDS011;62150;43.582;1.456;2024-02-14T19:09:53;6.55;;;2.72;;
17496;SDS011;62150;43.582;1.456;2024-02-14T19:12:22;6.95;;;2.80;;
17496;SDS011;62150;43.582;1.456;2024-02-14T19:14:49;7.03;;;3.07;;
17496;SDS011;62150;43.582;1.456;2024-02-14T19:17:18;6.13;;;2.97;;
17496;SDS011;62150;43.582;1.456;2024-02-14T19:19:45;5.83;;;2.83;;
17496;SDS011;62150;43.582;1.456;2024-02-14T19:22:13;8.17;;;3.10;;
17496;SDS011;62150;43.582;1.456;2024-02-14T19:24:40;5.40;;;2.70;;
17496;SDS011;62150;43.582;1.456;2024-02-14T19:27:08;6.17;;;2.90;;
17496;SDS011;62150;43.582;1.456;2024-02-14T19:29:36;6.20;;;2.97;;